sensor_id;sensor_type;location;lat;lon;timestamp;temperature;humidity
15343;DHT22;7771;48.478;8.936;2022-09-03T00:00:51;19.60;99.90
15343;DHT22;7771;48.478;8.936;2022-09-03T00:03:32;19.60;99.90
15343;DHT22;7771;48.478;8.936;2022-09-03T00:06:09;19.60;99.90
15343;DHT22;7771;48.478;8.936;2022-09-03T00:08:43;19.50;99.90
15343;DHT22;7771;48.478;8.936;2022-09-03T00:11:15;19.50;99.90
15343;DHT22;7771;48.478;8.936;2022-09-03T00:13:43;19.40;99.90
15343;DHT22;7771;48.478;8.936;2022-09-03T00:16:08;19.40;99.90
15343;DHT22;7771;48.478;8.936;2022-09-03T00:18:37;19.40;99.90
15343;DHT22;7771;48.478;8.936;2022-09-03T00:21:03;19.30;99.90
15343;DHT22;7771;48.478;8.936;2022-09-03T00:23:30;19.40;99.90
15343;DHT22;7771;48.478;8.936;2022-09-03T00:26:13;19.30;99.90
15343;DHT22;7771;48.478;8.936;2022-09-03T00:28:30;19.30;99.90
15343;DHT22;7771;48.478;8.936;2022-09-03T00:31:02;19.30;99.90
15343;DHT22;7771;48.478;8.936;2022-09-03T00:33:25;19.30;99.90
15343;DHT22;7771;48.478;8.936;2022-09-03T00:36:01;19.30;99.90
15343;DHT22;7771;48.478;8.936;2022-09-03T00:38:20;19.30;99.90
15343;DHT22;7771;48.478;8.936;2022-09-03T00:43:46;19.20;99.90
15343;DHT22;7771;48.478;8.936;2022-09-03T00:51:33;19.20;99.90
15343;DHT22;7771;48.478;8.936;2022-09-03T00:54:04;19.20;99.90
15343;DHT22;7771;48.478;8.936;2022-09-03T00:56:38;19.20;99.90
15343;DHT22;7771;48.478;8.936;2022-09-03T01:01:42;19.20;99.90
15343;DHT22;7771;48.478;8.936;2022-09-03T01:04:24;19.20;99.90
15343;DHT22;7771;48.478;8.936;2022-09-03T01:06:52;19.20;99.90
15343;DHT22;7771;48.478;8.936;2022-09-03T01:11:58;19.10;99.90
15343;DHT22;7771;48.478;8.936;2022-09-03T01:14:30;19.10;99.90
15343;DHT22;7771;48.478;8.936;2022-09-03T01:17:31;19.00;99.90
15343;DHT22;7771;48.478;8.936;2022-09-03T01:22:32;18.90;99.90
15343;DHT22;7771;48.478;8.936;2022-09-03T01:25:14;18.90;99.90
15343;DHT22;7771;48.478;8.936;2022-09-03T01:28:00;18.90;99.90
15343;DHT22;7771;48.478;8.936;2022-09-03T01:30:23;18.80;99.90
15343;DHT22;7771;48.478;8.936;2022-09-03T01:32:54;18.80;99.90
15343;DHT22;7771;48.478;8.936;2022-09-03T01:35:28;18.70;99.90
15343;DHT22;7771;48.478;8.936;2022-09-03T01:37:58;18.70;99.90
15343;DHT22;7771;48.478;8.936;2022-09-03T01:40:29;18.70;99.90
15343;DHT22;7771;48.478;8.936;2022-09-03T01:43:18;18.70;99.90
15343;DHT22;7771;48.478;8.936;2022-09-03T01:48:31;18.60;99.90
15343;DHT22;7771;48.478;8.936;2022-09-03T01:51:07;18.60;99.90
15343;DHT22;7771;48.478;8.936;2022-09-03T01:57:13;18.60;99.90
15343;DHT22;7771;48.478;8.936;2022-09-03T01:59:19;18.60;99.90
15343;DHT22;7771;48.478;8.936;2022-09-03T02:01:45;18.60;99.90
15343;DHT22;7771;48.478;8.936;2022-09-03T02:04:20;18.60;99.90
15343;DHT22;7771;48.478;8.936;2022-09-03T02:06:46;18.60;99.90
15343;DHT22;7771;48.478;8.936;2022-09-03T02:09:14;18.60;99.90
15343;DHT22;7771;48.478;8.936;2022-09-03T02:11:40;18.60;99.90
15343;DHT22;7771;48.478;8.936;2022-09-03T02:14:06;18.60;99.90
15343;DHT22;7771;48.478;8.936;2022-09-03T02:16:33;18.60;99.90
15343;DHT22;7771;48.478;8.936;2022-09-03T02:19:01;18.70;99.90
15343;DHT22;7771;48.478;8.936;2022-09-03T02:21:30;18.60;99.90
15343;DHT22;7771;48.478;8.936;2022-09-03T02:23:55;18.60;99.90
15343;DHT22;7771;48.478;8.936;2022-09-03T02:26:23;18.60;99.90
15343;DHT22;7771;48.478;8.936;2022-09-03T02:28:50;18.50;99.90
15343;DHT22;7771;48.478;8.936;2022-09-03T02:31:15;18.50;99.90
15343;DHT22;7771;48.478;8.936;2022-09-03T02:33:43;18.40;99.90
15343;DHT22;7771;48.478;8.936;2022-09-03T02:36:11;18.40;99.90
15343;DHT22;7771;48.478;8.936;2022-09-03T02:38:35;18.40;99.90
15343;DHT22;7771;48.478;8.936;2022-09-03T02:41:03;18.40;99.90
15343;DHT22;7771;48.478;8.936;2022-09-03T02:43:32;18.30;99.90
15343;DHT22;7771;48.478;8.936;2022-09-03T02:46:00;22.20;99.90
15343;DHT22;7771;48.478;8.936;2022-09-03T02:48:26;18.20;99.90
15343;DHT22;7771;48.478;8.936;2022-09-03T02:50:52;18.20;99.90
15343;DHT22;7771;48.478;8.936;2022-09-03T02:53:19;18.20;99.90
15343;DHT22;7771;48.478;8.936;2022-09-03T02:55:46;18.20;99.90
15343;DHT22;7771;48.478;8.936;2022-09-03T02:58:13;18.20;99.90
15343;DHT22;7771;48.478;8.936;2022-09-03T03:00:39;18.10;99.90
15343;DHT22;7771;48.478;8.936;2022-09-03T03:03:06;18.10;99.90
15343;DHT22;7771;48.478;8.936;2022-09-03T03:05:42;18.10;99.90
15343;DHT22;7771;48.478;8.936;2022-09-03T03:08:07;18.20;99.90
15343;DHT22;7771;48.478;8.936;2022-09-03T03:10:34;18.20;99.90
15343;DHT22;7771;48.478;8.936;2022-09-03T03:13:02;18.20;99.90
15343;DHT22;7771;48.478;8.936;2022-09-03T03:15:29;18.10;99.90
15343;DHT22;7771;48.478;8.936;2022-09-03T03:17:55;18.10;99.90
15343;DHT22;7771;48.478;8.936;2022-09-03T03:20:23;18.20;99.90
15343;DHT22;7771;48.478;8.936;2022-09-03T03:22:50;18.20;99.90
15343;DHT22;7771;48.478;8.936;2022-09-03T03:25:17;18.20;99.90
15343;DHT22;7771;48.478;8.936;2022-09-03T03:27:44;18.20;99.90
15343;DHT22;7771;48.478;8.936;2022-09-03T03:30:12;18.20;99.90
15343;DHT22;7771;48.478;8.936;2022-09-03T03:32:39;18.20;99.90
15343;DHT22;7771;48.478;8.936;2022-09-03T03:35:06;18.20;99.90
15343;DHT22;7771;48.478;8.936;2022-09-03T03:37:34;18.20;99.90
15343;DHT22;7771;48.478;8.936;2022-09-03T03:40:00;18.20;99.90
15343;DHT22;7771;48.478;8.936;2022-09-03T03:42:27;18.20;99.90
15343;DHT22;7771;48.478;8.936;2022-09-03T03:44:53;18.20;99.90
15343;DHT22;7771;48.478;8.936;2022-09-03T03:47:20;18.10;99.90
15343;DHT22;7771;48.478;8.936;2022-09-03T03:49:47;18.10;99.90
15343;DHT22;7771;48.478;8.936;2022-09-03T03:52:13;18.10;99.90
15343;DHT22;7771;48.478;8.936;2022-09-03T03:54:40;18.10;99.90
15343;DHT22;7771;48.478;8.936;2022-09-03T03:57:06;18.10;99.90
15343;DHT22;7771;48.478;8.936;2022-09-03T03:59:33;18.10;99.90
15343;DHT22;7771;48.478;8.936;2022-09-03T04:02:00;18.10;99.90
15343;DHT22;7771;48.478;8.936;2022-09-03T04:04:28;18.10;99.90
15343;DHT22;7771;48.478;8.936;2022-09-03T04:06:55;18.10;99.90
15343;DHT22;7771;48.478;8.936;2022-09-03T04:09:22;18.10;99.90
15343;DHT22;7771;48.478;8.936;2022-09-03T04:11:49;18.00;99.90
15343;DHT22;7771;48.478;8.936;2022-09-03T04:14:16;18.00;99.90
15343;DHT22;7771;48.478;8.936;2022-09-03T04:16:42;18.10;99.90
15343;DHT22;7771;48.478;8.936;2022-09-03T04:19:09;18.00;99.90
15343;DHT22;7771;48.478;8.936;2022-09-03T04:21:36;18.00;99.90
15343;DHT22;7771;48.478;8.936;2022-09-03T04:24:03;18.00;99.90
15343;DHT22;7771;48.478;8.936;2022-09-03T04:26:30;18.00;99.90
15343;DHT22;7771;48.478;8.936;2022-09-03T04:28:59;18.00;99.90
15343;DHT22;7771;48.478;8.936;2022-09-03T04:31:25;18.00;99.90
15343;DHT22;7771;48.478;8.936;2022-09-03T04:33:52;18.00;99.90
15343;DHT22;7771;48.478;8.936;2022-09-03T04:36:20;18.00;99.90
15343;DHT22;7771;48.478;8.936;2022-09-03T04:38:47;18.00;99.90
15343;DHT22;7771;48.478;8.936;2022-09-03T04:41:16;18.00;99.90
15343;DHT22;7771;48.478;8.936;2022-09-03T04:43:41;18.00;99.90
15343;DHT22;7771;48.478;8.936;2022-09-03T04:46:08;18.00;99.90
15343;DHT22;7771;48.478;8.936;2022-09-03T04:48:34;17.90;99.90
15343;DHT22;7771;48.478;8.936;2022-09-03T04:51:06;18.00;99.90
15343;DHT22;7771;48.478;8.936;2022-09-03T04:53:33;18.00;99.90
15343;DHT22;7771;48.478;8.936;2022-09-03T04:55:58;18.00;99.90
15343;DHT22;7771;48.478;8.936;2022-09-03T04:58:26;18.00;99.90
15343;DHT22;7771;48.478;8.936;2022-09-03T05:00:53;18.00;99.90
15343;DHT22;7771;48.478;8.936;2022-09-03T05:03:21;18.00;99.90
15343;DHT22;7771;48.478;8.936;2022-09-03T05:05:52;18.00;99.90
15343;DHT22;7771;48.478;8.936;2022-09-03T05:08:17;18.00;99.90
15343;DHT22;7771;48.478;8.936;2022-09-03T05:10:44;18.00;99.90
15343;DHT22;7771;48.478;8.936;2022-09-03T05:13:11;18.00;99.90
15343;DHT22;7771;48.478;8.936;2022-09-03T05:15:39;18.00;99.90
15343;DHT22;7771;48.478;8.936;2022-09-03T05:18:06;18.10;99.90
15343;DHT22;7771;48.478;8.936;2022-09-03T05:20:33;18.10;99.90
15343;DHT22;7771;48.478;8.936;2022-09-03T05:23:01;18.10;99.90
15343;DHT22;7771;48.478;8.936;2022-09-03T05:25:28;18.10;99.90
15343;DHT22;7771;48.478;8.936;2022-09-03T05:27:54;18.10;99.90
15343;DHT22;7771;48.478;8.936;2022-09-03T05:30:21;18.20;99.90
15343;DHT22;7771;48.478;8.936;2022-09-03T05:32:48;18.20;99.90
15343;DHT22;7771;48.478;8.936;2022-09-03T05:35:15;18.20;99.90
15343;DHT22;7771;48.478;8.936;2022-09-03T05:37:43;18.20;99.90
15343;DHT22;7771;48.478;8.936;2022-09-03T05:40:09;18.20;99.90
15343;DHT22;7771;48.478;8.936;2022-09-03T05:42:37;18.20;99.90
15343;DHT22;7771;48.478;8.936;2022-09-03T05:45:07;18.30;99.90
15343;DHT22;7771;48.478;8.936;2022-09-03T05:47:34;18.30;99.90
15343;DHT22;7771;48.478;8.936;2022-09-03T05:50:01;18.30;99.90
15343;DHT22;7771;48.478;8.936;2022-09-03T05:52:29;18.30;99.90
15343;DHT22;7771;48.478;8.936;2022-09-03T05:54:56;18.30;99.90
15343;DHT22;7771;48.478;8.936;2022-09-03T05:57:23;18.40;99.90
15343;DHT22;7771;48.478;8.936;2022-09-03T05:59:50;18.50;99.90
15343;DHT22;7771;48.478;8.936;2022-09-03T06:02:16;18.50;99.90
15343;DHT22;7771;48.478;8.936;2022-09-03T06:04:44;18.50;99.90
15343;DHT22;7771;48.478;8.936;2022-09-03T06:07:12;18.50;99.90
15343;DHT22;7771;48.478;8.936;2022-09-03T06:09:39;18.60;99.90
15343;DHT22;7771;48.478;8.936;2022-09-03T06:12:05;18.60;99.90
15343;DHT22;7771;48.478;8.936;2022-09-03T06:14:32;18.60;99.90
15343;DHT22;7771;48.478;8.936;2022-09-03T06:16:59;18.60;99.90
15343;DHT22;7771;48.478;8.936;2022-09-03T06:19:26;18.70;99.90
15343;DHT22;7771;48.478;8.936;2022-09-03T06:21:52;18.70;99.90
15343;DHT22;7771;48.478;8.936;2022-09-03T06:24:19;18.70;99.90
15343;DHT22;7771;48.478;8.936;2022-09-03T06:26:46;18.80;99.90
15343;DHT22;7771;48.478;8.936;2022-09-03T06:29:13;18.70;99.90
15343;DHT22;7771;48.478;8.936;2022-09-03T06:31:39;18.70;99.90
15343;DHT22;7771;48.478;8.936;2022-09-03T06:34:07;18.80;99.90
15343;DHT22;7771;48.478;8.936;2022-09-03T06:36:34;18.80;99.90
15343;DHT22;7771;48.478;8.936;2022-09-03T06:39:01;18.80;99.90
15343;DHT22;7771;48.478;8.936;2022-09-03T06:41:29;18.80;99.90
15343;DHT22;7771;48.478;8.936;2022-09-03T06:43:56;18.80;99.90
15343;DHT22;7771;48.478;8.936;2022-09-03T06:46:22;18.80;99.90
15343;DHT22;7771;48.478;8.936;2022-09-03T06:48:48;18.80;99.90
15343;DHT22;7771;48.478;8.936;2022-09-03T06:51:16;18.80;99.90
15343;DHT22;7771;48.478;8.936;2022-09-03T06:53:42;18.80;99.90
15343;DHT22;7771;48.478;8.936;2022-09-03T06:56:09;18.80;99.90
15343;DHT22;7771;48.478;8.936;2022-09-03T06:58:37;18.90;99.90
15343;DHT22;7771;48.478;8.936;2022-09-03T07:01:05;18.90;99.90
15343;DHT22;7771;48.478;8.936;2022-09-03T07:03:33;19.00;99.90
15343;DHT22;7771;48.478;8.936;2022-09-03T07:06:00;19.00;99.90
15343;DHT22;7771;48.478;8.936;2022-09-03T07:08:26;19.00;99.90
15343;DHT22;7771;48.478;8.936;2022-09-03T07:10:53;19.10;99.90
15343;DHT22;7771;48.478;8.936;2022-09-03T07:13:19;19.10;99.90
15343;DHT22;7771;48.478;8.936;2022-09-03T07:15:47;19.10;99.90
15343;DHT22;7771;48.478;8.936;2022-09-03T07:18:13;19.20;99.90
15343;DHT22;7771;48.478;8.936;2022-09-03T07:20:40;19.20;99.90
15343;DHT22;7771;48.478;8.936;2022-09-03T07:23:07;19.30;99.90
15343;DHT22;7771;48.478;8.936;2022-09-03T07:25:34;19.40;99.90
15343;DHT22;7771;48.478;8.936;2022-09-03T07:28:00;19.40;99.90
15343;DHT22;7771;48.478;8.936;2022-09-03T07:30:27;19.50;99.90
15343;DHT22;7771;48.478;8.936;2022-09-03T07:32:54;19.80;99.90
15343;DHT22;7771;48.478;8.936;2022-09-03T07:35:20;20.20;99.90
15343;DHT22;7771;48.478;8.936;2022-09-03T07:37:47;20.90;99.90
15343;DHT22;7771;48.478;8.936;2022-09-03T07:40:14;22.00;99.90
15343;DHT22;7771;48.478;8.936;2022-09-03T07:42:41;23.30;99.90
15343;DHT22;7771;48.478;8.936;2022-09-03T07:45:09;24.30;99.90
15343;DHT22;7771;48.478;8.936;2022-09-03T07:47:36;25.30;99.90
15343;DHT22;7771;48.478;8.936;2022-09-03T07:50:03;26.30;99.90
15343;DHT22;7771;48.478;8.936;2022-09-03T07:52:30;26.70;99.90
15343;DHT22;7771;48.478;8.936;2022-09-03T07:54:57;26.80;99.90
15343;DHT22;7771;48.478;8.936;2022-09-03T07:57:25;26.60;99.90
15343;DHT22;7771;48.478;8.936;2022-09-03T07:59:52;26.30;99.80
15343;DHT22;7771;48.478;8.936;2022-09-03T08:02:20;26.00;99.90
15343;DHT22;7771;48.478;8.936;2022-09-03T08:04:47;25.80;99.90
15343;DHT22;7771;48.478;8.936;2022-09-03T08:07:14;25.80;99.90
15343;DHT22;7771;48.478;8.936;2022-09-03T08:09:41;25.80;99.90
15343;DHT22;7771;48.478;8.936;2022-09-03T08:12:07;25.80;99.90
15343;DHT22;7771;48.478;8.936;2022-09-03T08:14:34;25.80;99.90
15343;DHT22;7771;48.478;8.936;2022-09-03T08:17:01;26.00;99.90
15343;DHT22;7771;48.478;8.936;2022-09-03T08:19:27;26.10;99.90
15343;DHT22;7771;48.478;8.936;2022-09-03T08:21:54;26.20;99.90
15343;DHT22;7771;48.478;8.936;2022-09-03T08:24:20;26.40;99.60
15343;DHT22;7771;48.478;8.936;2022-09-03T08:26:48;26.70;99.20
15343;DHT22;7771;48.478;8.936;2022-09-03T08:29:16;26.80;98.80
15343;DHT22;7771;48.478;8.936;2022-09-03T08:31:43;26.80;98.80
15343;DHT22;7771;48.478;8.936;2022-09-03T08:34:09;26.80;98.40
15343;DHT22;7771;48.478;8.936;2022-09-03T08:36:36;26.90;98.20
15343;DHT22;7771;48.478;8.936;2022-09-03T08:39:04;26.90;98.30
15343;DHT22;7771;48.478;8.936;2022-09-03T08:44:18;27.20;97.90
15343;DHT22;7771;48.478;8.936;2022-09-03T08:46:48;27.20;97.60
15343;DHT22;7771;48.478;8.936;2022-09-03T08:49:13;27.20;97.50
15343;DHT22;7771;48.478;8.936;2022-09-03T08:51:40;27.30;97.80
15343;DHT22;7771;48.478;8.936;2022-09-03T08:54:06;27.30;98.10
15343;DHT22;7771;48.478;8.936;2022-09-03T08:56:33;27.30;97.30
15343;DHT22;7771;48.478;8.936;2022-09-03T08:58:59;27.30;97.50
15343;DHT22;7771;48.478;8.936;2022-09-03T09:01:49;27.50;97.40
15343;DHT22;7771;48.478;8.936;2022-09-03T09:04:20;27.70;97.10
15343;DHT22;7771;48.478;8.936;2022-09-03T09:06:47;27.90;96.70
15343;DHT22;7771;48.478;8.936;2022-09-03T09:09:29;27.90;96.90
15343;DHT22;7771;48.478;8.936;2022-09-03T09:11:59;28.30;95.70
15343;DHT22;7771;48.478;8.936;2022-09-03T09:14:44;28.40;96.00
15343;DHT22;7771;48.478;8.936;2022-09-03T09:17:30;28.50;94.70
15343;DHT22;7771;48.478;8.936;2022-09-03T09:20:08;28.30;94.80
15343;DHT22;7771;48.478;8.936;2022-09-03T09:22:48;28.20;94.10
15343;DHT22;7771;48.478;8.936;2022-09-03T09:25:14;28.10;93.40
15343;DHT22;7771;48.478;8.936;2022-09-03T09:27:57;28.00;93.50
15343;DHT22;7771;48.478;8.936;2022-09-03T09:30:22;27.80;93.60
15343;DHT22;7771;48.478;8.936;2022-09-03T09:32:49;27.70;93.40
15343;DHT22;7771;48.478;8.936;2022-09-03T09:35:16;27.40;93.60
15343;DHT22;7771;48.478;8.936;2022-09-03T09:37:46;27.20;94.00
15343;DHT22;7771;48.478;8.936;2022-09-03T09:40:20;27.10;93.90
15343;DHT22;7771;48.478;8.936;2022-09-03T09:42:39;26.90;94.40
15343;DHT22;7771;48.478;8.936;2022-09-03T09:45:08;26.70;94.10
15343;DHT22;7771;48.478;8.936;2022-09-03T09:47:37;26.50;94.40
15343;DHT22;7771;48.478;8.936;2022-09-03T09:50:02;26.40;94.60
15343;DHT22;7771;48.478;8.936;2022-09-03T09:52:29;26.30;94.80
15343;DHT22;7771;48.478;8.936;2022-09-03T09:55:20;26.00;95.00
15343;DHT22;7771;48.478;8.936;2022-09-03T09:57:46;25.90;95.40
15343;DHT22;7771;48.478;8.936;2022-09-03T10:00:15;25.90;95.60
15343;DHT22;7771;48.478;8.936;2022-09-03T10:02:47;25.90;95.90
15343;DHT22;7771;48.478;8.936;2022-09-03T10:05:13;25.90;95.70
15343;DHT22;7771;48.478;8.936;2022-09-03T10:07:39;25.90;95.90
15343;DHT22;7771;48.478;8.936;2022-09-03T10:10:12;25.90;95.90
15343;DHT22;7771;48.478;8.936;2022-09-03T10:12:39;25.90;96.00
15343;DHT22;7771;48.478;8.936;2022-09-03T10:18:08;25.90;95.90
15343;DHT22;7771;48.478;8.936;2022-09-03T10:20:45;25.90;96.20
15343;DHT22;7771;48.478;8.936;2022-09-03T10:23:13;25.90;96.10
15343;DHT22;7771;48.478;8.936;2022-09-03T10:25:41;25.90;96.20
15343;DHT22;7771;48.478;8.936;2022-09-03T10:28:06;26.00;96.10
15343;DHT22;7771;48.478;8.936;2022-09-03T10:30:33;26.00;96.20
15343;DHT22;7771;48.478;8.936;2022-09-03T10:35:44;26.10;96.00
15343;DHT22;7771;48.478;8.936;2022-09-03T10:38:31;26.10;96.00
15343;DHT22;7771;48.478;8.936;2022-09-03T10:41:03;26.10;95.80
15343;DHT22;7771;48.478;8.936;2022-09-03T10:43:50;26.00;95.60
15343;DHT22;7771;48.478;8.936;2022-09-03T10:46:15;25.90;95.60
15343;DHT22;7771;48.478;8.936;2022-09-03T10:48:47;25.80;95.70
15343;DHT22;7771;48.478;8.936;2022-09-03T10:51:15;25.70;95.80
15343;DHT22;7771;48.478;8.936;2022-09-03T10:54:00;25.60;96.00
15343;DHT22;7771;48.478;8.936;2022-09-03T10:56:31;25.50;96.40
15343;DHT22;7771;48.478;8.936;2022-09-03T10:59:06;25.30;96.30
15343;DHT22;7771;48.478;8.936;2022-09-03T11:04:19;25.10;96.70
15343;DHT22;7771;48.478;8.936;2022-09-03T11:06:55;24.90;97.00
15343;DHT22;7771;48.478;8.936;2022-09-03T11:09:23;24.70;97.20
15343;DHT22;7771;48.478;8.936;2022-09-03T11:12:07;24.70;97.50
15343;DHT22;7771;48.478;8.936;2022-09-03T11:14:39;24.60;97.90
15343;DHT22;7771;48.478;8.936;2022-09-03T11:17:08;24.40;98.30
15343;DHT22;7771;48.478;8.936;2022-09-03T11:19:33;24.30;98.80
15343;DHT22;7771;48.478;8.936;2022-09-03T11:21:58;24.30;99.50
15343;DHT22;7771;48.478;8.936;2022-09-03T11:24:25;24.20;99.90
15343;DHT22;7771;48.478;8.936;2022-09-03T11:26:54;24.10;99.90
15343;DHT22;7771;48.478;8.936;2022-09-03T11:29:29;23.90;99.90
15343;DHT22;7771;48.478;8.936;2022-09-03T11:31:57;23.50;99.90
15343;DHT22;7771;48.478;8.936;2022-09-03T11:34:45;23.20;99.90
15343;DHT22;7771;48.478;8.936;2022-09-03T11:37:22;22.80;99.90
15343;DHT22;7771;48.478;8.936;2022-09-03T11:39:55;22.40;99.90
15343;DHT22;7771;48.478;8.936;2022-09-03T11:42:28;21.90;99.90
15343;DHT22;7771;48.478;8.936;2022-09-03T11:47:39;21.30;99.90
15343;DHT22;7771;48.478;8.936;2022-09-03T11:50:22;21.10;99.90
15343;DHT22;7771;48.478;8.936;2022-09-03T11:52:48;20.90;99.90
15343;DHT22;7771;48.478;8.936;2022-09-03T11:55:23;20.80;99.90
15343;DHT22;7771;48.478;8.936;2022-09-03T11:57:50;20.70;99.90
15343;DHT22;7771;48.478;8.936;2022-09-03T12:00:17;20.60;99.90
15343;DHT22;7771;48.478;8.936;2022-09-03T12:02:44;20.50;99.90
15343;DHT22;7771;48.478;8.936;2022-09-03T12:05:13;20.50;99.90
15343;DHT22;7771;48.478;8.936;2022-09-03T12:16:35;20.40;99.90
15343;DHT22;7771;48.478;8.936;2022-09-03T12:19:02;20.40;99.90
15343;DHT22;7771;48.478;8.936;2022-09-03T12:21:26;20.40;99.90
15343;DHT22;7771;48.478;8.936;2022-09-03T12:23:53;20.40;99.90
15343;DHT22;7771;48.478;8.936;2022-09-03T12:26:22;20.40;99.90
15343;DHT22;7771;48.478;8.936;2022-09-03T12:28:49;20.40;99.90
15343;DHT22;7771;48.478;8.936;2022-09-03T12:31:19;20.50;99.90
15343;DHT22;7771;48.478;8.936;2022-09-03T12:33:50;20.50;99.90
15343;DHT22;7771;48.478;8.936;2022-09-03T12:36:16;20.50;99.90
15343;DHT22;7771;48.478;8.936;2022-09-03T12:38:43;20.60;99.90
15343;DHT22;7771;48.478;8.936;2022-09-03T12:41:21;20.70;99.90
15343;DHT22;7771;48.478;8.936;2022-09-03T12:43:50;20.70;99.90
15343;DHT22;7771;48.478;8.936;2022-09-03T12:46:16;20.80;99.90
15343;DHT22;7771;48.478;8.936;2022-09-03T12:49:02;20.90;99.90
15343;DHT22;7771;48.478;8.936;2022-09-03T12:51:39;21.00;99.90
15343;DHT22;7771;48.478;8.936;2022-09-03T12:53:57;21.10;99.90
15343;DHT22;7771;48.478;8.936;2022-09-03T12:56:23;21.20;99.90
15343;DHT22;7771;48.478;8.936;2022-09-03T12:58:54;21.30;99.90
15343;DHT22;7771;48.478;8.936;2022-09-03T13:01:21;21.40;99.90
15343;DHT22;7771;48.478;8.936;2022-09-03T13:03:49;21.60;99.90
15343;DHT22;7771;48.478;8.936;2022-09-03T13:06:16;21.90;99.90
15343;DHT22;7771;48.478;8.936;2022-09-03T13:08:47;22.20;99.90
15343;DHT22;7771;48.478;8.936;2022-09-03T13:11:14;22.60;99.90
15343;DHT22;7771;48.478;8.936;2022-09-03T13:13:47;22.80;99.90
15343;DHT22;7771;48.478;8.936;2022-09-03T13:16:28;22.90;99.90
15343;DHT22;7771;48.478;8.936;2022-09-03T13:18:59;23.00;99.90
15343;DHT22;7771;48.478;8.936;2022-09-03T13:21:30;23.10;99.90
15343;DHT22;7771;48.478;8.936;2022-09-03T13:26:50;23.30;99.90
15343;DHT22;7771;48.478;8.936;2022-09-03T13:30:00;23.30;99.90
15343;DHT22;7771;48.478;8.936;2022-09-03T13:32:15;23.40;99.90
15343;DHT22;7771;48.478;8.936;2022-09-03T13:34:49;23.40;99.90
15343;DHT22;7771;48.478;8.936;2022-09-03T13:39:57;23.60;99.90
15343;DHT22;7771;48.478;8.936;2022-09-03T13:42:34;23.60;99.90
15343;DHT22;7771;48.478;8.936;2022-09-03T13:45:21;23.70;99.90
15343;DHT22;7771;48.478;8.936;2022-09-03T13:47:50;23.80;99.90
15343;DHT22;7771;48.478;8.936;2022-09-03T13:50:20;23.70;99.90
15343;DHT22;7771;48.478;8.936;2022-09-03T13:52:55;23.80;99.90
15343;DHT22;7771;48.478;8.936;2022-09-03T13:55:22;23.80;99.90
15343;DHT22;7771;48.478;8.936;2022-09-03T13:57:53;24.10;99.90
15343;DHT22;7771;48.478;8.936;2022-09-03T14:00:23;24.20;99.90
15343;DHT22;7771;48.478;8.936;2022-09-03T14:02:53;24.30;99.90
15343;DHT22;7771;48.478;8.936;2022-09-03T14:08:24;24.50;99.90
15343;DHT22;7771;48.478;8.936;2022-09-03T14:11:13;24.70;99.90
15343;DHT22;7771;48.478;8.936;2022-09-03T14:13:43;24.60;99.90
15343;DHT22;7771;48.478;8.936;2022-09-03T14:16:09;24.70;99.90
15343;DHT22;7771;48.478;8.936;2022-09-03T14:18:41;24.70;99.90
15343;DHT22;7771;48.478;8.936;2022-09-03T14:21:10;24.70;99.90
15343;DHT22;7771;48.478;8.936;2022-09-03T14:23:43;24.80;99.90
15343;DHT22;7771;48.478;8.936;2022-09-03T14:26:06;24.80;99.90
15343;DHT22;7771;48.478;8.936;2022-09-03T14:28:36;24.80;99.90
15343;DHT22;7771;48.478;8.936;2022-09-03T14:31:11;24.60;99.90
15343;DHT22;7771;48.478;8.936;2022-09-03T14:33:38;24.60;99.90
15343;DHT22;7771;48.478;8.936;2022-09-03T14:36:09;24.60;99.90
15343;DHT22;7771;48.478;8.936;2022-09-03T14:38:55;24.60;99.90
15343;DHT22;7771;48.478;8.936;2022-09-03T14:42:31;24.50;99.90
15343;DHT22;7771;48.478;8.936;2022-09-03T14:44:14;24.40;99.90
15343;DHT22;7771;48.478;8.936;2022-09-03T14:46:43;24.40;99.90
15343;DHT22;7771;48.478;8.936;2022-09-03T14:49:09;24.20;99.90
15343;DHT22;7771;48.478;8.936;2022-09-03T14:51:44;24.10;99.90
15343;DHT22;7771;48.478;8.936;2022-09-03T14:54:33;24.10;99.90
15343;DHT22;7771;48.478;8.936;2022-09-03T14:58:10;24.10;99.90
15343;DHT22;7771;48.478;8.936;2022-09-03T15:02:45;24.20;99.90
15343;DHT22;7771;48.478;8.936;2022-09-03T15:05:01;24.10;99.90
15343;DHT22;7771;48.478;8.936;2022-09-03T15:07:31;24.20;99.90
15343;DHT22;7771;48.478;8.936;2022-09-03T15:10:14;24.20;99.90
15343;DHT22;7771;48.478;8.936;2022-09-03T15:12:45;24.20;99.90
15343;DHT22;7771;48.478;8.936;2022-09-03T15:15:21;24.20;99.90
15343;DHT22;7771;48.478;8.936;2022-09-03T15:18:24;24.20;99.90
15343;DHT22;7771;48.478;8.936;2022-09-03T15:20:50;24.20;99.90
15343;DHT22;7771;48.478;8.936;2022-09-03T15:23:40;24.20;99.90
15343;DHT22;7771;48.478;8.936;2022-09-03T15:31:21;24.10;99.90
15343;DHT22;7771;48.478;8.936;2022-09-03T15:33:59;24.10;99.90
15343;DHT22;7771;48.478;8.936;2022-09-03T15:36:25;24.10;99.90
15343;DHT22;7771;48.478;8.936;2022-09-03T15:38:57;24.30;99.90
15343;DHT22;7771;48.478;8.936;2022-09-03T15:41:28;24.40;99.90
15343;DHT22;7771;48.478;8.936;2022-09-03T15:43:56;24.40;99.90
15343;DHT22;7771;48.478;8.936;2022-09-03T15:46:29;24.40;99.90
15343;DHT22;7771;48.478;8.936;2022-09-03T15:48:59;24.40;99.90
15343;DHT22;7771;48.478;8.936;2022-09-03T15:51:26;24.40;99.90
15343;DHT22;7771;48.478;8.936;2022-09-03T15:53:59;24.30;99.90
15343;DHT22;7771;48.478;8.936;2022-09-03T15:59:00;24.20;99.90
15343;DHT22;7771;48.478;8.936;2022-09-03T16:01:31;24.00;99.90
15343;DHT22;7771;48.478;8.936;2022-09-03T16:03:58;24.00;99.90
15343;DHT22;7771;48.478;8.936;2022-09-03T16:06:27;24.00;99.90
15343;DHT22;7771;48.478;8.936;2022-09-03T16:08:55;24.00;99.90
15343;DHT22;7771;48.478;8.936;2022-09-03T16:11:47;23.90;99.90
15343;DHT22;7771;48.478;8.936;2022-09-03T16:14:27;23.90;99.90
15343;DHT22;7771;48.478;8.936;2022-09-03T16:16:59;23.90;99.90
15343;DHT22;7771;48.478;8.936;2022-09-03T16:19:42;23.80;99.90
15343;DHT22;7771;48.478;8.936;2022-09-03T16:22:19;23.80;99.90
15343;DHT22;7771;48.478;8.936;2022-09-03T16:24:51;23.80;99.90
15343;DHT22;7771;48.478;8.936;2022-09-03T16:27:19;23.70;99.90
15343;DHT22;7771;48.478;8.936;2022-09-03T16:29:52;23.60;99.90
15343;DHT22;7771;48.478;8.936;2022-09-03T16:32:16;23.60;99.90
15343;DHT22;7771;48.478;8.936;2022-09-03T16:35:02;23.50;99.90
15343;DHT22;7771;48.478;8.936;2022-09-03T16:37:27;23.50;99.90
15343;DHT22;7771;48.478;8.936;2022-09-03T16:40:00;23.50;99.90
15343;DHT22;7771;48.478;8.936;2022-09-03T16:42:42;23.50;99.90
15343;DHT22;7771;48.478;8.936;2022-09-03T16:45:21;23.50;99.90
15343;DHT22;7771;48.478;8.936;2022-09-03T16:50:33;23.40;99.90
15343;DHT22;7771;48.478;8.936;2022-09-03T16:55:55;23.40;99.90
15343;DHT22;7771;48.478;8.936;2022-09-03T16:58:24;23.40;99.90
15343;DHT22;7771;48.478;8.936;2022-09-03T17:01:00;23.30;99.90
15343;DHT22;7771;48.478;8.936;2022-09-03T17:03:26;23.30;99.90
15343;DHT22;7771;48.478;8.936;2022-09-03T17:05:57;23.30;99.90
15343;DHT22;7771;48.478;8.936;2022-09-03T17:08:27;23.30;99.90
15343;DHT22;7771;48.478;8.936;2022-09-03T17:13:59;23.20;99.90